Flight Track Log - Related Links

Times and Time Zones

All times are in EDT time to prevent confusion due to time zone crossing. See the UAL33 flight status page for this flight to view local times or setup timezone preferences in your user account.

Time Position Orientation Groundspeed Altitude Reporting Facility
EDT Latitude Longitude Course Direction KTS MPH feet Rate Location/Type
Wed 06:27:17 PM 29.9550 -95.3393 267° West 170 196 900  Level FlightAware ADS-B
Wed 06:27:25 PM 29.9485 -95.3394 181° South 169 194 1,200 2,000 Climbing FlightAware ADS-B
Wed 06:27:32 PM 29.9433 -95.3417 201° Southwest 172 198 1,400 1,636 Climbing FlightAware ADS-B
Wed 06:27:36 PM 29.9410 -95.3435 214° Southwest 178 205 1,500 1,500 Climbing FlightAware ADS-B
Wed 06:27:40 PM 29.9388 -95.3461 226° Southwest 182 209 1,600 1,500 Climbing FlightAware ADS-B
Wed 06:27:44 PM 29.9364 -95.3500 235° Southwest 188 216 1,700 1,500 Climbing FlightAware ADS-B
Wed 06:27:48 PM 29.9352 -95.3534 248° West 190 219 1,800 2,500 Climbing FlightAware ADS-B
Wed 06:27:56 PM 29.9342 -95.3608 261° West 192 221 2,200 2,727 Climbing FlightAware ADS-B
Wed 06:27:59 PM 29.9344 -95.3647 273° West 191 220 2,300 3,000 Climbing FlightAware ADS-B
Wed 06:28:04 PM 29.9355 -95.3696 285° West 190 219 2,600 2,667 Climbing FlightAware ADS-B
Wed 06:28:08 PM 29.9369 -95.3727 298° West 191 220 2,700 2,571 Climbing FlightAware ADS-B
Wed 06:28:11 PM 29.9387 -95.3757 305° West 191 220 2,900 3,429 Climbing FlightAware ADS-B
Wed 06:28:15 PM 29.9409 -95.3784 313° West 193 222 3,100 2,727 Climbing FlightAware ADS-B
Wed 06:28:22 PM 29.9460 -95.3824 326° Northwest 196 226 3,400 2,182 Climbing FlightAware ADS-B
Wed 06:28:26 PM 29.9499 -95.3843 337° Northwest 198 228 3,500 1,714 Climbing FlightAware ADS-B
Wed 06:28:29 PM 29.9526 -95.3851 346° North 199 229 3,600 2,000 Climbing FlightAware ADS-B
Wed 06:28:32 PM 29.9555 -95.3857 350° North 201 231 3,700 1,200 Climbing FlightAware ADS-B
Wed 06:28:39 PM 29.9620 -95.3864 355° North 210 242 3,800 1,556 Climbing FlightAware ADS-B
Wed 06:29:26 PM 30.0168 -95.3916 355° North 273 314 5,100 2,129 Climbing FlightAware ADS-B
Wed 06:29:41 PM 30.0359 -95.3932 356° North 274 315 6,000 3,000 Climbing FlightAware ADS-B
Wed 06:29:52 PM 30.0498 -95.3943 356° North 283 326 6,400 2,947 Climbing FlightAware ADS-B
Wed 06:30:38 PM 30.1115 -95.3974 358° North 293 337 8,800 3,051 Climbing FlightAware ADS-B
Wed 06:30:51 PM 30.1294 -95.3982 358° North 294 338 9,400 2,842 Climbing FlightAware ADS-B
Wed 06:31:16 PM 30.1637 -95.4003 357° North 302 348 10,600 2,727 Climbing FlightAware ADS-B
Wed 06:31:24 PM 30.1746 -95.4013 355° North 306 352 10,900 1,909 Climbing FlightAware ADS-B
Wed 06:31:38 PM 30.1949 -95.4064 343° North 318 366 11,300 1,729 Climbing FlightAware ADS-B
Wed 06:32:23 PM 30.2584 -95.4430 331° Northwest 363 418 12,600 1,760 Climbing FlightAware ADS-B
Wed 06:32:53 PM 30.3024 -95.4759 327° Northwest 391 450 13,500 2,508 Climbing FlightAware ADS-B
Wed 06:34:25 PM 30.4508 -95.5881 326° Northwest 419 482 17,700 2,390 Climbing FlightAware ADS-B
Wed 06:34:56 PM 30.5017 -95.6272 327° Northwest 439 505 18,400 1,418 Climbing FlightAware ADS-B
Wed 06:35:20 PM 30.5456 -95.6560 332° Northwest 453 521 19,000 1,627 Climbing FlightAware ADS-B
Wed 06:35:55 PM 30.6146 -95.6922 336° Northwest 470 541 20,000 1,938 Climbing FlightAware ADS-B
Wed 06:36:56 PM 30.7354 -95.7586 334° Northwest 480 552 22,100 1,753 Climbing FlightAware ADS-B
Wed 06:38:29 PM 30.9256 -95.8614 335° Northwest 501 577 24,500 1,948 Climbing FlightAware ADS-B
Wed 06:39:30 PM 31.0510 -95.9291 335° Northwest 488 562 27,100 2,308 Climbing FlightAware ADS-B
Wed 06:39:47 PM 31.0866 -95.9477 336° Northwest 492 566 27,500 1,548 Climbing FlightAware ADS-B
Wed 06:40:01 PM 31.1174 -95.9612 339° North 493 567 27,900 1,714 Climbing FlightAware ADS-B
Wed 06:40:15 PM 31.1471 -95.9717 343° North 494 568 28,300 1,714 Climbing FlightAware ADS-B
Wed 06:40:22 PM 31.1621 -95.9763 345° North 495 570 28,500 1,500 Climbing FlightAware ADS-B
Wed 06:43:11 PM 31.5508 -96.0678 349° North 504 580 32,700 1,455 Climbing FlightAware ADS-B
Wed 06:45:23 PM 31.8538 -96.1392 349° North 507 583 35,800 1,358 Climbing FlightAware ADS-B
Wed 06:46:43 PM 32.0365 -96.1825 349° North 503 579 37,500 1,263 Climbing FlightAware ADS-B
Wed 06:47:36 PM 32.1550 -96.2100 349° North 496 571 38,600 1,220 Climbing FlightAware ADS-B
Wed 06:47:42 PM 32.1696 -96.2125 352° North 496 571 38,700 453 Climbing FlightAware ADS-B
Wed 06:48:29 PM 32.2796 -96.2192 360° North 496 571 39,000 360 Climbing FlightAware ADS-B
Wed 06:48:32 PM 32.2864 -96.2193 359° North 495 570 39,000  Level FlightAware ADS-B
Wed 06:49:40 PM 32.4370 -96.2210 359° North 494 568 39,000  Level FlightAware ADS-B
Wed 06:50:16 PM 32.5200 -96.2220 359° North 495 570 39,000  Level FlightAware ADS-B
Wed 06:50:56 PM 32.6110 -96.2230 359° North 497 572 39,000  Level FlightAware ADS-B
Wed 06:51:38 PM 32.7100 -96.2240 360° North 495 570 39,000  Level FlightAware ADS-B
Wed 06:52:58 PM 32.8910 -96.2260 360° North 493 567 39,000  Level FlightAware ADS-B
Wed 06:53:38 PM 32.9830 -96.2270 359° North 492 566 39,000  Level FlightAware ADS-B
Wed 06:54:16 PM 33.0680 -96.2280 359° North 490 564 39,000  Level FlightAware ADS-B
Wed 06:54:54 PM 33.1560 -96.2300 359° North 490 564 39,000  Level FlightAware ADS-B
Wed 06:55:30 PM 33.2390 -96.2310 359° North 488 562 39,000  Level FlightAware ADS-B
Wed 06:56:14 PM 33.3380 -96.2320 360° North 491 565 39,000  Level FlightAware ADS-B
Wed 06:57:00 PM 33.4440 -96.2330 360° North 491 565 39,000  Level FlightAware ADS-B
Wed 06:57:40 PM 33.5330 -96.2300 North 492 566 39,000 214 Level FlightAware ADS-B
Wed 06:58:24 PM 33.6300 -96.2030 13° North 497 572 39,300 628 Climbing FlightAware ADS-B
Wed 06:59:06 PM 33.7260 -96.1700 16° North 495 570 39,900 846 Climbing FlightAware ADS-B
Wed 06:59:42 PM 33.8050 -96.1430 16° North 491 565 40,400 800 Climbing FlightAware ADS-B
Wed 07:00:21 PM 33.8880 -96.1150 16° North 489 563 40,900 429 Climbing FlightAware ADS-B
Wed 07:01:06 PM 33.9840 -96.0820 16° North 485 558 41,000 68 Climbing FlightAware ADS-B
Wed 07:01:49 PM 34.0810 -96.0490 16° North 484 557 41,000  Level FlightAware ADS-B
Wed 07:02:30 PM 34.1690 -96.0180 16° North 485 558 41,000  Level FlightAware ADS-B
Wed 07:03:10 PM 34.2550 -95.9890 16° North 487 560 41,000  Level FlightAware ADS-B
Wed 07:03:53 PM 34.3460 -95.9570 16° North 486 559 41,000  Level FlightAware ADS-B
Wed 07:04:28 PM 34.4240 -95.9310 15° North 485 558 41,000  Level FlightAware ADS-B
Wed 07:05:12 PM 34.5170 -95.8980 16° North 487 560 41,000  Level FlightAware ADS-B
Wed 07:05:54 PM 34.6110 -95.8660 16° North 487 560 41,000  Level FlightAware ADS-B
Wed 07:06:26 PM 34.6800 -95.8420 16° North 488 562 41,000  Level FlightAware ADS-B
Wed 07:07:10 PM 34.7730 -95.8090 16° North 489 563 41,000  Level FlightAware ADS-B
Wed 07:07:52 PM 34.8620 -95.7620 23° Northeast 500 575 41,000  Level FlightAware ADS-B
Wed 07:08:28 PM 34.9250 -95.6940 41° Northeast 509 586 41,000  Level FlightAware ADS-B
Wed 07:09:06 PM 34.9910 -95.6180 43° Northeast 509 586 41,000  Level FlightAware ADS-B
Wed 07:09:50 PM 35.0570 -95.5420 43° Northeast 509 586 41,000  Level FlightAware ADS-B
Wed 07:10:33 PM 35.1370 -95.4480 44° Northeast 509 586 41,000  Level FlightAware ADS-B
Wed 07:11:10 PM 35.1890 -95.3870 44° Northeast 509 586 41,000  Level FlightAware ADS-B
Wed 07:11:49 PM 35.2680 -95.2930 44° Northeast 511 588 41,000  Level FlightAware ADS-B
Wed 07:12:38 PM 35.3520 -95.1940 44° Northeast 510 587 41,000  Level FlightAware ADS-B
Wed 07:13:16 PM 35.4150 -95.1200 44° Northeast 509 586 41,000  Level FlightAware ADS-B
Wed 07:13:56 PM 35.4840 -95.0380 44° Northeast 511 588 41,000  Level FlightAware ADS-B
Wed 07:14:32 PM 35.5450 -94.9660 44° Northeast 512 589 41,000  Level FlightAware ADS-B
Wed 07:15:26 PM 35.6360 -94.8570 44° Northeast 510 587 41,000  Level FlightAware ADS-B
Wed 07:16:05 PM 35.6990 -94.7820 44° Northeast 511 588 41,000  Level FlightAware ADS-B
Wed 07:16:52 PM 35.7810 -94.6840 44° Northeast 511 588 41,000  Level FlightAware ADS-B
Wed 07:17:32 PM 35.8500 -94.6020 44° Northeast 511 588 41,000  Level FlightAware ADS-B
Wed 07:18:16 PM 35.9250 -94.5120 44° Northeast 512 589 41,000  Level FlightAware ADS-B
Wed 07:18:56 PM 35.9930 -94.4290 45° Northeast 513 590 41,000  Level FlightAware ADS-B
Wed 07:19:36 PM 36.0600 -94.3480 44° Northeast 514 592 41,000  Level FlightAware ADS-B
Wed 07:20:51 PM 36.1630 -94.2230 44° Northeast 515 593 41,000  Level FlightAware ADS-B
Wed 07:21:32 PM 36.2610 -94.1150 42° Northeast 507 583 41,000  Level FlightAware ADS-B
Wed 07:22:16 PM 36.3490 -94.0500 31° Northeast 502 578 41,000  Level FlightAware ADS-B
Wed 07:22:36 PM 36.3910 -94.0210 29° Northeast 502 578 41,000  Level FlightAware ADS-B
Wed 07:23:26 PM 36.4900 -93.9510 30° Northeast 502 578 41,000  Level FlightAware ADS-B
Wed 07:24:06 PM 36.5720 -93.8930 30° Northeast 500 575 41,000  Level FlightAware ADS-B
Wed 07:24:50 PM 36.6590 -93.8320 29° Northeast 500 575 41,000  Level FlightAware ADS-B
Wed 07:25:28 PM 36.7370 -93.7770 29° Northeast 502 578 41,000  Level FlightAware ADS-B
Wed 07:26:14 PM 36.8280 -93.7120 30° Northeast 502 578 41,000  Level FlightAware ADS-B
Wed 07:26:54 PM 36.9110 -93.6530 30° Northeast 499 574 41,000  Level FlightAware ADS-B
Wed 07:27:30 PM 36.9810 -93.6030 30° Northeast 497 572 41,000  Level FlightAware ADS-B
Wed 07:28:10 PM 37.0620 -93.5450 30° Northeast 499 574 41,000  Level FlightAware ADS-B
Wed 07:28:54 PM 37.1490 -93.4830 30° Northeast 496 571 41,000  Level FlightAware ADS-B
Wed 07:29:26 PM 37.2120 -93.4380 30° Northeast 493 567 41,000  Level FlightAware ADS-B
Wed 07:30:10 PM 37.3000 -93.3740 30° Northeast 494 568 41,000  Level FlightAware ADS-B
Wed 07:30:50 PM 37.3770 -93.3140 32° Northeast 495 570 41,000  Level FlightAware ADS-B
Wed 07:31:26 PM 37.4440 -93.2530 36° Northeast 485 558 41,000  Level FlightAware ADS-B
Wed 07:32:10 PM 37.5210 -93.1810 37° Northeast 470 541 41,000  Level FlightAware ADS-B
Wed 07:32:50 PM 37.5930 -93.1160 36° Northeast 467 537 41,000  Level FlightAware ADS-B
Wed 07:33:30 PM 37.6620 -93.0510 37° Northeast 469 540 41,000  Level FlightAware ADS-B
Wed 07:34:16 PM 37.7420 -92.9770 36° Northeast 472 543 41,000  Level FlightAware ADS-B
Wed 07:34:56 PM 37.8120 -92.9110 37° Northeast 471 542 41,000  Level FlightAware ADS-B
Wed 07:35:38 PM 37.8860 -92.8430 36° Northeast 474 545 41,000  Level FlightAware ADS-B
Wed 07:36:18 PM 37.9580 -92.7750 37° Northeast 476 548 41,000  Level FlightAware ADS-B
Wed 07:36:54 PM 38.0200 -92.7170 36° Northeast 477 549 41,000  Level FlightAware ADS-B
Wed 07:37:40 PM 38.1000 -92.6410 37° Northeast 476 548 41,000  Level FlightAware ADS-B
Wed 07:38:18 PM 38.1680 -92.5770 36° Northeast 473 544 41,000  Level FlightAware ADS-B
Wed 07:38:58 PM 38.2420 -92.5210 31° Northeast 449 517 41,000  Level FlightAware ADS-B
Wed 07:39:42 PM 38.3290 -92.4870 17° North 442 509 41,000  Level FlightAware ADS-B
Wed 07:40:20 PM 38.4010 -92.4600 16° North 440 506 41,000  Level FlightAware ADS-B
Wed 07:41:06 PM 38.4850 -92.4310 15° North 441 507 41,000  Level FlightAware ADS-B
Wed 07:41:45 PM 38.5510 -92.4090 15° North 441 507 41,000  Level FlightAware ADS-B
Wed 07:42:21 PM 38.6110 -92.3880 15° North 441 507 41,000  Level FlightAware ADS-B
Wed 07:43:09 PM 38.6910 -92.3600 15° North 441 507 41,000  Level FlightAware ADS-B
Wed 07:43:37 PM 38.7800 -92.3200 19° North 447 514 41,000  Level FlightAware ADS-B
Wed 07:44:25 PM 38.8600 -92.2850 19° North 447 514 41,000  Level FlightAware ADS-B
Wed 07:44:36 PM 38.8800 -92.1880 75° East 472 543 41,000  Level FlightAware ADS-B
Wed 07:44:50 PM 38.9000 -92.1620 45° Northeast 472 543 41,000  Level FlightAware ADS-B
Wed 07:45:28 PM 38.9550 -92.0890 46° Northeast 474 545 41,000  Level FlightAware ADS-B
Wed 07:46:23 PM 39.0380 -91.9810 45° Northeast 476 548 41,000  Level FlightAware ADS-B
Wed 07:47:02 PM 39.1020 -91.8950 46° Northeast 478 550 41,000  Level FlightAware ADS-B
Wed 07:47:40 PM 39.1610 -91.8170 46° Northeast 475 547 41,000  Level FlightAware ADS-B
Wed 07:48:26 PM 39.2200 -91.7380 46° Northeast 475 547 41,000  Level FlightAware ADS-B
Wed 07:49:06 PM 39.2890 -91.6460 46° Northeast 462 532 41,000  Level FlightAware ADS-B
Wed 07:50:02 PM 39.3740 -91.5330 46° Northeast 462 532 41,000 -319 Level FlightAware ADS-B
Wed 07:50:40 PM 39.4290 -91.4580 46° Northeast 463 533 40,500 -1,011 Descending FlightAware ADS-B
Wed 07:51:31 PM 39.5010 -91.3620 46° Northeast 471 542 39,500 -1,722 Descending FlightAware ADS-B
Wed 07:52:28 PM 39.5940 -91.2370 46° Northeast 483 556 37,400 -1,714 Descending FlightAware ADS-B
Wed 07:53:16 PM 39.6680 -91.1360 46° Northeast 479 551 36,500 -1,186 Descending FlightAware ADS-B
Wed 07:53:54 PM 39.7280 -91.0620 43° Northeast 471 542 35,700 -918 Descending FlightAware ADS-B
Wed 07:54:54 PM 39.8280 -90.9600 38° Northeast 456 525 35,000 -429 Descending FlightAware ADS-B
Wed 07:55:32 PM 39.8920 -90.8960 37° Northeast 448 516 35,000  Level FlightAware ADS-B
Wed 07:56:18 PM 39.9670 -90.8200 38° Northeast 448 516 35,000  Level FlightAware ADS-B
Wed 07:57:13 PM 40.0570 -90.7290 38° Northeast 453 521 35,000 -319 Level FlightAware ADS-B
Wed 07:57:52 PM 40.1200 -90.6650 38° Northeast 455 524 34,500 -1,341 Descending FlightAware ADS-B
Wed 07:58:38 PM 40.1970 -90.5870 38° Northeast 453 521 33,100 -1,071 Descending FlightAware ADS-B
Wed 07:59:16 PM 40.2600 -90.5230 38° Northeast 441 507 33,000 -140 Descending FlightAware ADS-B
Wed 08:00:04 PM 40.3390 -90.4420 38° Northeast 445 512 32,900 -1,023 Descending FlightAware ADS-B
Wed 08:00:44 PM 40.4000 -90.3790 38° Northeast 444 511 31,500 -2,025 Descending FlightAware ADS-B
Wed 08:01:24 PM 40.4660 -90.3120 38° Northeast 447 514 30,200 -1,407 Descending FlightAware ADS-B
Wed 08:02:05 PM 40.5330 -90.2430 38° Northeast 451 519 29,600 -835 Descending FlightAware ADS-B
Wed 08:02:43 PM 40.5970 -90.1770 38° Northeast 447 514 29,100 -846 Descending FlightAware ADS-B
Wed 08:03:23 PM 40.6600 -90.1110 38° Northeast 447 514 28,500 -975 Descending FlightAware ADS-B
Wed 08:04:03 PM 40.7230 -90.0460 38° Northeast 433 498 27,800 -923 Descending FlightAware ADS-B
Wed 08:04:41 PM 40.7850 -89.9810 38° Northeast 425 489 27,300 -805 Descending FlightAware ADS-B
Wed 08:05:25 PM 40.8530 -89.9110 38° Northeast 444 511 26,700 -857 Descending FlightAware ADS-B
Wed 08:06:05 PM 40.9180 -89.8430 38° Northeast 438 504 26,100 -878 Descending FlightAware ADS-B
Wed 08:06:47 PM 40.9840 -89.7730 39° Northeast 438 504 25,500 -878 Descending FlightAware ADS-B
Wed 08:07:27 PM 41.0490 -89.7050 38° Northeast 439 505 24,900 -837 Descending FlightAware ADS-B
Wed 08:08:13 PM 41.1190 -89.6310 39° Northeast 434 499 24,300 -621 Descending FlightAware ADS-B
Wed 08:08:54 PM 41.1750 -89.5490 48° Northeast 444 511 24,000 -1,091 Descending FlightAware ADS-B
Wed 08:09:30 PM 41.2110 -89.4620 61° Northeast 440 506 22,900 -1,899 Descending FlightAware ADS-B
Wed 08:10:13 PM 41.2490 -89.3660 62° Northeast 431 496 21,500 -2,071 Descending FlightAware ADS-B
Wed 08:10:54 PM 41.2890 -89.2680 61° Northeast 423 487 20,000 -2,160 Descending FlightAware ADS-B
Wed 08:11:28 PM 41.3210 -89.1890 62° Northeast 416 479 18,800 -2,211 Descending FlightAware ADS-B
Wed 08:12:10 PM 41.3580 -89.0950 62° Northeast 412 474 17,200 -2,268 Descending FlightAware ADS-B
Wed 08:12:50 PM 41.3940 -89.0050 62° Northeast 402 463 15,700 -2,143 Descending FlightAware ADS-B
Wed 08:13:34 PM 41.4320 -88.9110 62° Northeast 392 451 14,200 -2,071 Descending FlightAware ADS-B
Wed 08:14:14 PM 41.4660 -88.8240 62° Northeast 385 443 12,800 -2,071 Descending FlightAware ADS-B
Wed 08:14:58 PM 41.5020 -88.7340 62° Northeast 379 436 11,300 -1,357 Descending FlightAware ADS-B
Wed 08:15:38 PM 41.5330 -88.6540 63° Northeast 359 413 10,900 -293 Descending FlightAware ADS-B
Wed 08:16:20 PM 41.5650 -88.5750 62° Northeast 314 361 10,900 -154 Level FlightAware ADS-B
Wed 08:16:56 PM 41.5880 -88.5170 62° Northeast 298 343 10,700 -741 Descending FlightAware ADS-B
Wed 08:17:41 PM 41.6200 -88.4490 58° Northeast 291 335 9,900 -1,071 Descending FlightAware ADS-B
Wed 08:17:52 PM 41.6300 -88.4310 53° Northeast 288 331 9,700 -1,200 Descending FlightAware ADS-B
Wed 08:18:16 PM 41.6490 -88.3980 52° Northeast 283 326 9,200 -1,179 Descending FlightAware ADS-B
Wed 08:18:48 PM 41.6750 -88.3540 52° Northeast 283 326 8,600 -1,200 Descending FlightAware ADS-B
Wed 08:19:16 PM 41.6980 -88.3180 49° Northeast 283 326 8,000 -1,050 Descending FlightAware ADS-B
Wed 08:19:28 PM 41.7120 -88.3080 28° Northeast 273 314 7,900 -214 Descending FlightAware ADS-B
Wed 08:19:44 PM 41.7320 -88.3050 North 257 296 7,900  Level FlightAware ADS-B
Wed 08:20:12 PM 41.7640 -88.3070 357° North 238 274 7,900  Level FlightAware ADS-B
Wed 08:20:28 PM 41.7810 -88.3070 360° North 235 270 7,900  Level FlightAware ADS-B
Wed 08:20:56 PM 41.8110 -88.3090 357° North 233 268 7,900  Level FlightAware ADS-B
Wed 08:21:18 PM 41.8330 -88.3100 358° North 212 244 7,900  Level FlightAware ADS-B
Wed 08:21:43 PM 41.8570 -88.3110 358° North 200 230 7,900 -113 Level FlightAware ADS-B
Wed 08:22:11 PM 41.8800 -88.3140 354° North 197 227 7,800 -419 Descending FlightAware ADS-B
Wed 08:22:26 PM 41.8920 -88.3290 317° Northwest 196 226 7,600 -977 Descending FlightAware ADS-B
Wed 08:22:54 PM 41.9010 -88.3610 291° West 199 229 7,100 -1,050 Descending FlightAware ADS-B
Wed 08:23:06 PM 41.9090 -88.3710 317° Northwest 198 228 6,900 -1,000 Descending FlightAware ADS-B
Wed 08:23:18 PM 41.9190 -88.3750 343° North 196 226 6,700 -1,000 Descending FlightAware ADS-B
Wed 08:23:42 PM 41.9360 -88.3640 26° Northeast 200 230 6,300 -1,105 Descending FlightAware ADS-B
Wed 08:23:56 PM 41.9430 -88.3460 62° Northeast 202 232 6,000 -857 Descending FlightAware ADS-B
Wed 08:24:24 PM 41.9530 -88.3130 68° East 197 227 5,700 -724 Descending FlightAware ADS-B
Wed 08:24:54 PM 41.9620 -88.2800 70° East 194 223 5,300 -889 Descending FlightAware ADS-B
Wed 08:25:18 PM 41.9680 -88.2500 75° East 193 222 4,900 -808 Descending FlightAware ADS-B
Wed 08:25:46 PM 41.9680 -88.2190 90° East 192 221 4,600 -800 Descending FlightAware ADS-B
Wed 08:26:18 PM 41.9680 -88.1810 90° East 188 216 4,100 -931 Descending FlightAware ADS-B
Wed 08:26:44 PM 41.9680 -88.1500 90° East 189 217 3,700 -1,000 Descending FlightAware ADS-B
Wed 08:27:00 PM 41.9680 -88.1310 90° East 190 219 3,400 -931 Descending FlightAware ADS-B
Wed 08:27:42 PM 41.9690 -88.0860 88° East 174 200 2,800 -971 Descending FlightAware ADS-B
Wed 08:28:08 PM 41.9690 -88.0560 90° East 154 177 2,300 -913 Descending FlightAware ADS-B
Wed 08:28:28 PM 41.9690 -88.0390 90° East 144 166 2,100 -735 Descending FlightAware ADS-B
Wed 08:28:57 PM 41.9690 -88.0140 90° East 142 163 1,700 -724 Descending FlightAware ADS-B
Wed 08:29:26 PM 41.9690 -87.9870 90° East 145 167 1,400 -720 Descending FlightAware ADS-B
Wed 08:29:47 PM 41.9690 -87.9700 90° East 144 166 1,100 -778 Descending FlightAware ADS-B
Wed 08:30:20 PM 41.9690 -87.9390 90° East 143 165 700 -414 Descending FlightAware ADS-B
Wed 08:30:45 PM 41.9690 -87.9200 90° East 143 165 700  Level FlightAware ADS-B

Login

Don't have an account? Register now (free) for customized features, flight alerts, and more!